Time;durP1;ratioP1;P1;durP2;ratioP2;P2;SDS_P1;SDS_P2;PMS_P1;PMS_P2;Temp;Humidity;BMP_temperature;BMP_pressure;BME280_temperature;BME280_humidity;BME280_pressure;Samples;Min_cycle;Max_cycle;Signal;HPM_P1;HPM_P2
2022/12/08 00:01:10;;;;;;;;;;;;;;;10.65;42.03;99009.03;4515185;31;34257;-93
2022/12/08 00:03:38;;;;;;;;;;;;;;;10.95;41.50;99011.03;4514821;31;33536;-90
2022/12/08 00:11:40;;;;;;;;;;;;;;;10.99;41.48;99011.94;4515911;31;34322;-92
2022/12/08 00:14:08;;;;;;;;;;;;;;;10.94;41.56;99003.22;4514830;31;34146;-89
2022/12/08 00:16:35;;;;;;;;;;;;;;;11.11;41.12;99006.84;4515276;31;33320;-92
2022/12/08 00:19:03;;;;;;;;;;;;;;;11.14;41.18;98999.09;4515528;31;34342;-93
2022/12/08 00:21:30;;;;;;;;;;;;;;;11.17;41.14;99004.31;4515804;31;34440;-84
2022/12/08 00:23:57;;;;;;;;;;;;;;;11.31;40.79;99003.53;4515881;31;33777;-86
2022/12/08 00:26:24;;;;;;;;;;;;;;;11.44;40.42;99001.03;4516114;31;34090;-91
2022/12/08 00:28:52;;;;;;;;;;;;;;;11.46;40.27;99003.63;4515896;31;33690;-93
2022/12/08 00:31:19;;;;;;;;;;;;;;;11.26;40.74;98998.31;4515805;31;33988;-92
2022/12/08 00:33:46;;;;;;;;;;;;;;;11.33;40.59;99001.81;4513403;31;33693;-87
2022/12/08 00:36:14;;;;;;;;;;;;;;;11.29;40.67;99003.53;4515470;31;33499;-88
2022/12/08 00:38:41;;;;;;;;;;;;;;;11.34;40.61;99003.56;4515390;31;35199;-91
2022/12/08 00:41:12;;;;;;;;;;;;;;;11.18;40.91;99008.63;4505127;31;34218;-92
2022/12/08 00:43:39;;;;;;;;;;;;;;;11.39;40.61;99018.28;4499779;31;35726;-93
2022/12/08 00:46:07;;;;;;;;;;;;;;;11.24;40.84;99012.97;4499601;31;33438;-92
2022/12/08 00:48:34;;;;;;;;;;;;;;;11.42;40.51;99013.13;4504960;31;34431;-91
2022/12/08 00:51:01;;;;;;;;;;;;;;;11.34;40.58;99011.34;4513848;31;34423;-90
2022/12/08 00:53:29;;;;;;;;;;;;;;;11.40;40.49;99009.66;4512730;31;34715;-92
2022/12/08 00:55:56;;;;;;;;;;;;;;;11.26;40.80;99010.41;4513842;31;33363;-86
2022/12/08 00:58:23;;;;;;;;;;;;;;;11.37;40.52;99007.03;4513622;31;34298;-86
2022/12/08 01:00:51;;;;;;;;;;;;;;;11.34;40.54;99008.75;4510053;31;34516;-91
2022/12/08 01:03:20;;;;;;;;;;;;;;;11.34;40.33;99004.41;4499275;31;34171;-88
2022/12/08 01:05:47;;;;;;;;;;;;;;;11.22;40.72;99008.66;4511454;31;33311;-87
2022/12/08 01:08:14;;;;;;;;;;;;;;;11.26;40.69;99005.22;4514056;31;34319;-85
2022/12/08 01:10:42;;;;;;;;;;;;;;;11.30;40.74;99006.97;4514351;31;35328;-85
2022/12/08 01:13:10;;;;;;;;;;;;;;;11.40;40.25;99008.75;4513941;31;34769;-91
2022/12/08 01:15:37;;;;;;;;;;;;;;;11.44;40.03;99008.81;4513523;31;33037;-91
2022/12/08 01:18:04;;;;;;;;;;;;;;;11.39;40.22;99005.31;4516201;31;33783;-88
2022/12/08 01:20:31;;;;;;;;;;;;;;;11.29;40.36;99013.91;4516519;31;34542;-85
2022/12/08 01:22:59;;;;;;;;;;;;;;;11.44;40.10;99011.41;4517684;31;34897;-92
2022/12/08 01:25:26;;;;;;;;;;;;;;;11.40;39.97;99008.75;4515763;31;34275;-93
2022/12/08 01:27:53;;;;;;;;;;;;;;;11.26;39.99;99007.81;4512023;31;34303;-88
2022/12/08 01:30:21;;;;;;;;;;;;;;;11.25;40.13;99003.47;4517957;31;34057;-93
2022/12/08 01:32:48;;;;;;;;;;;;;;;11.09;40.26;99013.72;4515902;31;34808;-93
2022/12/08 01:35:15;;;;;;;;;;;;;;;11.07;40.29;99004.22;4515940;31;34198;-89
2022/12/08 01:37:42;;;;;;;;;;;;;;;11.11;40.13;99004.25;4515955;31;34108;-93
2022/12/08 01:40:10;;;;;;;;;;;;;;;11.16;39.98;99002.53;4515053;31;34174;-92
2022/12/08 01:42:37;;;;;;;;;;;;;;;11.24;39.95;99005.19;4509728;31;34183;-91
2022/12/08 01:45:06;;;;;;;;;;;;;;;11.19;39.72;99005.16;4516287;31;33337;-87
2022/12/08 01:47:35;;;;;;;;;;;;;;;11.16;39.74;98994.75;4512035;31;33668;-88
2022/12/08 01:50:03;;;;;;;;;;;;;;;11.15;39.53;98994.75;4513662;31;34465;-87
2022/12/08 01:52:33;;;;;;;;;;;;;;;11.08;39.67;98988.66;4507910;31;34752;-87
2022/12/08 01:55:02;;;;;;;;;;;;;;;10.84;40.12;98991.06;4501106;31;33139;-92
2022/12/08 01:57:31;;;;;;;;;;;;;;;10.93;39.93;98996.31;4500280;31;34106;-93
2022/12/08 02:00:04;;;;;;;;;;;;;;;10.95;39.80;98990.28;4501581;31;34867;-93
2022/12/08 02:02:38;;;;;;;;;;;;;;;11.02;39.27;98986.00;4515703;31;34224;-93
2022/12/08 02:05:06;;;;;;;;;;;;;;;11.00;39.25;98992.03;4513846;31;33095;-90
2022/12/08 02:07:33;;;;;;;;;;;;;;;11.20;38.86;98987.87;4501954;31;34988;-93
2022/12/08 02:10:01;;;;;;;;;;;;;;;10.86;39.32;98984.12;4499373;31;35296;-85
2022/12/08 02:12:29;;;;;;;;;;;;;;;10.72;39.63;98971.06;4512978;31;34281;-85
2022/12/08 02:14:56;;;;;;;;;;;;;;;10.68;39.75;98975.34;4501480;31;30841;-91
2022/12/08 02:17:45;;;;;;;;;;;;;;;10.62;40.04;98980.47;4509163;31;34789;-93
2022/12/08 02:20:17;;;;;;;;;;;;;;;10.67;39.99;98978.78;4504475;31;34510;-92
2022/12/08 02:22:53;;;;;;;;;;;;;;;10.67;39.86;98976.19;4514360;31;33807;-84
2022/12/08 02:25:43;;;;;;;;;;;;;;;10.60;40.01;98982.16;4499787;31;33008;-83
2022/12/08 02:28:14;;;;;;;;;;;;;;;10.81;39.73;98978.91;4507031;31;34286;-88
2022/12/08 02:30:46;;;;;;;;;;;;;;;10.54;40.32;98976.94;4515819;31;34507;-92
2022/12/08 02:33:16;;;;;;;;;;;;;;;10.52;40.50;98973.44;4513092;31;34325;-86
2022/12/08 02:35:47;;;;;;;;;;;;;;;10.55;40.77;98973.47;4499941;31;33438;-91
2022/12/08 02:38:27;;;;;;;;;;;;;;;10.65;40.70;98964.94;4507606;31;34159;-94
2022/12/08 02:41:13;;;;;;;;;;;;;;;10.57;41.04;98969.19;4499589;31;34472;-86
2022/12/08 02:43:42;;;;;;;;;;;;;;;10.60;41.20;98961.44;4510788;31;35252;-93
2022/12/08 02:46:39;;;;;;;;;;;;;;;10.77;41.16;98965.91;4506822;31;33692;-94
2022/12/08 02:49:06;;;;;;;;;;;;;;;10.90;40.94;98959.97;4503078;31;34195;-87
2022/12/08 02:51:33;;;;;;;;;;;;;;;10.74;41.48;98965.88;4514242;31;34343;-93
2022/12/08 02:54:01;;;;;;;;;;;;;;;10.79;41.54;98967.66;4515573;31;34271;-85
2022/12/08 02:56:40;;;;;;;;;;;;;;;10.89;41.56;98958.22;4515032;31;33164;-90
2022/12/08 02:59:17;;;;;;;;;;;;;;;10.92;41.54;98959.13;4518105;31;34255;-89
2022/12/08 03:02:03;;;;;;;;;;;;;;;11.16;41.14;98957.56;4516401;31;35335;-91
2022/12/08 03:04:45;;;;;;;;;;;;;;;11.10;41.33;98957.50;4516311;31;34005;-88
2022/12/08 03:07:18;;;;;;;;;;;;;;;11.17;41.34;98952.41;4515164;31;33128;-87
2022/12/08 03:09:59;;;;;;;;;;;;;;;11.27;41.09;98955.06;4517282;31;34110;-92
2022/12/08 03:12:29;;;;;;;;;;;;;;;11.20;41.32;98955.00;4515723;31;34426;-85
2022/12/08 03:14:57;;;;;;;;;;;;;;;11.30;41.15;98947.28;4515810;31;35032;-91
2022/12/08 03:17:27;;;;;;;;;;;;;;;11.32;41.15;98948.16;4515079;31;34184;-91
2022/12/08 03:19:54;;;;;;;;;;;;;;;11.29;41.17;98954.22;4515384;31;33599;-92
2022/12/08 03:22:22;;;;;;;;;;;;;;;11.28;41.39;98946.41;4514237;31;34079;-85
2022/12/08 03:24:50;;;;;;;;;;;;;;;11.34;41.39;98946.44;4503644;31;34367;-90
2022/12/08 03:27:19;;;;;;;;;;;;;;;11.20;41.50;98954.13;4498486;31;32983;-92
2022/12/08 03:29:47;;;;;;;;;;;;;;;11.50;40.38;98943.06;4500413;31;33753;-91
2022/12/08 03:32:33;;;;;;;;;;;;;;;11.26;40.76;98953.31;4508225;31;34251;-88
2022/12/08 03:35:02;;;;;;;;;;;;;;;11.34;40.82;98949.91;4515401;31;35225;-92
2022/12/08 03:37:29;;;;;;;;;;;;;;;11.17;41.00;98944.63;4515270;31;33632;-87
2022/12/08 03:39:56;;;;;;;;;;;;;;;11.08;41.40;98944.53;4503890;31;32431;-91
2022/12/08 03:42:24;;;;;;;;;;;;;;;10.95;41.72;98947.91;4515599;31;34416;-89
2022/12/08 03:44:51;;;;;;;;;;;;;;;11.06;41.76;98935.00;4515380;31;34497;-92
2022/12/08 03:47:18;;;;;;;;;;;;;;;11.18;41.60;98943.75;4514355;31;32935;-92
2022/12/08 03:49:45;;;;;;;;;;;;;;;10.59;42.35;98938.09;4514531;31;34281;-88
2022/12/08 03:52:13;;;;;;;;;;;;;;;11.07;41.62;98940.22;4514783;31;34104;-85
2022/12/08 03:54:40;;;;;;;;;;;;;;;11.44;40.93;98935.28;4513865;31;34982;-88
2022/12/08 03:57:07;;;;;;;;;;;;;;;11.41;40.98;98928.31;4515261;31;33238;-92
2022/12/08 03:59:34;;;;;;;;;;;;;;;11.37;41.03;98936.97;4514964;31;35490;-93
2022/12/08 04:02:01;;;;;;;;;;;;;;;11.54;40.70;98929.25;4515065;31;34269;-89
2022/12/08 04:04:29;;;;;;;;;;;;;;;11.40;41.02;98931.78;4508760;31;34826;-93
2022/12/08 04:06:56;;;;;;;;;;;;;;;11.09;41.53;98933.28;4515196;31;33535;-94
2022/12/08 04:09:23;;;;;;;;;;;;;;;11.41;41.23;98923.12;4515791;31;34276;-93
2022/12/08 04:11:51;;;;;;;;;;;;;;;11.50;40.92;98924.91;4515511;31;34631;-92
2022/12/08 04:14:18;;;;;;;;;;;;;;;11.36;41.18;98923.94;4515617;31;34268;-92
2022/12/08 04:16:45;;;;;;;;;;;;;;;11.37;41.26;98925.72;4508527;31;32653;-89
2022/12/08 04:19:14;;;;;;;;;;;;;;;11.47;41.25;98922.28;4499391;31;34147;-93
2022/12/08 04:21:41;;;;;;;;;;;;;;;11.56;40.96;98917.16;4498133;31;34880;-91
2022/12/08 04:24:08;;;;;;;;;;;;;;;11.36;41.16;98919.63;4499364;31;33912;-92
2022/12/08 04:26:36;;;;;;;;;;;;;;;11.43;41.15;98915.34;4507093;31;33758;-86
2022/12/08 04:29:03;;;;;;;;;;;;;;;11.49;41.21;98917.97;4514986;31;33938;-86
2022/12/08 04:31:30;;;;;;;;;;;;;;;11.65;40.85;98921.50;4515649;31;34489;-91
2022/12/08 04:33:57;;;;;;;;;;;;;;;11.64;40.89;98912.84;4515537;31;34263;-88
2022/12/08 04:36:25;;;;;;;;;;;;;;;11.70;40.84;98914.59;4515326;31;33624;-93
2022/12/08 04:38:52;;;;;;;;;;;;;;;11.71;40.81;98916.34;4512327;31;34037;-90
2022/12/08 04:41:19;;;;;;;;;;;;;;;11.82;40.50;98918.97;4514210;31;33685;-92
2022/12/08 04:43:46;;;;;;;;;;;;;;;11.60;40.62;98918.91;4516385;31;34040;-92
2022/12/08 04:46:14;;;;;;;;;;;;;;;11.46;41.05;98917.97;4516070;31;33343;-91
2022/12/08 04:48:41;;;;;;;;;;;;;;;11.47;40.99;98918.81;4515069;31;33986;-93
2022/12/08 04:51:15;;;;;;;;;;;;;;;11.53;40.95;98916.28;4516043;31;35284;-92
2022/12/08 04:53:43;;;;;;;;;;;;;;;11.44;41.19;98914.50;4516230;31;33811;-93
2022/12/08 04:56:13;;;;;;;;;;;;;;;11.61;41.12;98912.84;4516632;31;33236;-87
2022/12/08 04:58:40;;;;;;;;;;;;;;;11.48;41.17;98912.75;4500079;31;33587;-91
2022/12/08 05:01:08;;;;;;;;;;;;;;;11.52;41.15;98911.94;4502097;31;35135;-87
2022/12/08 05:03:35;;;;;;;;;;;;;;;11.69;40.78;98918.06;4512636;31;34156;-86
2022/12/08 05:06:02;;;;;;;;;;;;;;;11.59;40.88;98917.19;4513542;31;33985;-87
2022/12/08 05:08:30;;;;;;;;;;;;;;;11.61;40.78;98918.03;4501386;31;34318;-91
2022/12/08 05:11:05;;;;;;;;;;;;;;;11.55;41.04;98920.59;4515466;31;34253;-86
2022/12/08 05:13:33;;;;;;;;;;;;;;;11.35;41.39;98917.03;4514510;31;34164;-91
2022/12/08 05:16:09;;;;;;;;;;;;;;;11.55;41.07;98914.53;4515089;31;32768;-85
2022/12/08 05:18:36;;;;;;;;;;;;;;;11.65;40.93;98921.50;4514746;31;34179;-92
2022/12/08 05:21:04;;;;;;;;;;;;;;;11.53;41.31;98917.13;4501213;31;34430;-94
2022/12/08 05:23:31;;;;;;;;;;;;;;;11.37;41.70;98920.53;4515058;31;34740;-93
2022/12/08 05:25:59;;;;;;;;;;;;;;;11.47;41.66;98914.50;4515936;31;33575;-89
2022/12/08 05:28:26;;;;;;;;;;;;;;;11.66;41.40;98913.72;4515016;31;33377;-92
2022/12/08 05:31:10;;;;;;;;;;;;;;;11.56;41.42;98916.28;4515009;31;34190;-93
2022/12/08 05:33:38;;;;;;;;;;;;;;;11.73;40.77;98898.16;4513568;31;34856;-93
2022/12/08 05:36:07;;;;;;;;;;;;;;;11.47;41.21;98898.91;4515364;31;33898;-93
2022/12/08 05:38:34;;;;;;;;;;;;;;;11.35;41.44;98898.88;4515081;31;34990;-93
2022/12/08 05:41:02;;;;;;;;;;;;;;;11.61;41.05;98907.66;4495186;31;33861;-92
2022/12/08 05:43:29;;;;;;;;;;;;;;;11.35;41.59;98906.66;4501911;31;34105;-89
2022/12/08 05:45:56;;;;;;;;;;;;;;;11.59;41.26;98896.41;4509333;31;32910;-94
2022/12/08 05:48:24;;;;;;;;;;;;;;;11.72;41.03;98905.09;4514857;31;34248;-93
2022/12/08 05:50:51;;;;;;;;;;;;;;;11.53;41.20;98906.75;4513684;31;35204;-92
2022/12/08 05:53:19;;;;;;;;;;;;;;;11.55;41.34;98904.16;4514531;31;34118;-92
2022/12/08 05:55:46;;;;;;;;;;;;;;;11.32;41.77;98904.03;4513830;31;34352;-92
2022/12/08 05:58:14;;;;;;;;;;;;;;;11.45;41.31;98900.66;4513964;31;33774;-89
2022/12/08 06:00:41;;;;;;;;;;;;;;;11.63;41.04;98908.53;4514805;31;35227;-92
2022/12/08 06:03:12;;;;;;;;;;;;;;;11.63;40.92;98908.53;4514481;31;34983;-91
2022/12/08 06:05:40;;;;;;;;;;;;;;;11.60;41.12;98902.47;4515080;31;33912;-88
2022/12/08 06:08:07;;;;;;;;;;;;;;;11.68;41.11;98914.59;4516252;31;33994;-90
2022/12/08 06:10:36;;;;;;;;;;;;;;;11.62;41.09;98906.78;4517127;31;34444;-86
2022/12/08 06:13:03;;;;;;;;;;;;;;;11.47;41.51;98903.25;4514519;31;34285;-92
2022/12/08 06:15:32;;;;;;;;;;;;;;;11.45;41.46;98905.84;4516112;31;33952;-90
2022/12/08 06:18:00;;;;;;;;;;;;;;;11.51;41.27;98905.84;4516603;31;34224;-92
2022/12/08 06:20:27;;;;;;;;;;;;;;;11.22;41.88;98904.88;4517132;31;34869;-92
2022/12/08 06:22:54;;;;;;;;;;;;;;;11.29;41.63;98912.69;4517090;31;34823;-90
2022/12/08 06:25:22;;;;;;;;;;;;;;;11.39;41.48;98916.19;4516866;31;34211;-91
2022/12/08 06:27:49;;;;;;;;;;;;;;;11.47;41.37;98916.22;4510382;31;34351;-90
2022/12/08 06:30:16;;;;;;;;;;;;;;;11.35;41.50;98917.03;4508991;31;34450;-88
2022/12/08 06:32:44;;;;;;;;;;;;;;;11.58;41.12;98920.59;4516608;31;34848;-92
2022/12/08 06:35:11;;;;;;;;;;;;;;;11.60;41.24;98913.72;4519153;31;34518;-90
2022/12/08 06:37:38;;;;;;;;;;;;;;;11.68;41.10;98919.81;4517457;31;34401;-88
2022/12/08 06:40:06;;;;;;;;;;;;;;;11.60;41.02;98925.81;4516813;31;35132;-84
2022/12/08 06:42:42;;;;;;;;;;;;;;;11.52;41.29;98928.38;4516089;31;35707;-88
2022/12/08 06:45:10;;;;;;;;;;;;;;;11.53;41.42;98919.72;4516165;31;33699;-90
2022/12/08 06:47:37;;;;;;;;;;;;;;;11.64;41.25;98924.97;4515642;31;34576;-90
2022/12/08 06:50:05;;;;;;;;;;;;;;;11.82;40.82;98930.25;4515882;31;34240;-91
2022/12/08 06:52:33;;;;;;;;;;;;;;;11.81;40.91;98930.22;4515639;31;34862;-93
2022/12/08 06:55:11;;;;;;;;;;;;;;;11.62;41.24;98929.28;4515925;31;32979;-92
2022/12/08 06:57:59;;;;;;;;;;;;;;;11.50;41.47;98927.50;4515917;31;34332;-92
2022/12/08 07:00:26;;;;;;;;;;;;;;;10.94;42.33;98926.28;4515520;31;34124;-92
2022/12/08 07:02:53;;;;;;;;;;;;;;;9.91;44.65;98934.78;4515652;31;33868;-92
2022/12/08 07:05:21;;;;;;;;;;;;;;;10.16;44.33;98928.16;4515978;31;33102;-93
2022/12/08 07:07:48;;;;;;;;;;;;;;;10.86;42.53;98927.94;4516057;31;34419;-89
2022/12/08 07:10:16;;;;;;;;;;;;;;;10.91;42.56;98935.75;4515679;31;34755;-87
2022/12/08 07:12:44;;;;;;;;;;;;;;;10.89;42.78;98938.34;4515890;31;34045;-85
2022/12/08 07:15:11;;;;;;;;;;;;;;;10.94;42.73;98941.84;4515176;31;33651;-90
2022/12/08 07:17:38;;;;;;;;;;;;;;;11.10;42.59;98936.75;4515508;31;34540;-89
2022/12/08 07:20:06;;;;;;;;;;;;;;;11.20;42.33;98935.97;4515817;31;35203;-92
2022/12/08 07:22:33;;;;;;;;;;;;;;;11.01;42.21;98937.56;4515653;31;33992;-91
2022/12/08 07:25:00;;;;;;;;;;;;;;;11.25;41.93;98930.81;4515551;31;34139;-91
2022/12/08 07:27:28;;;;;;;;;;;;;;;11.40;41.77;98934.37;4514503;31;35119;-91
2022/12/08 07:29:55;;;;;;;;;;;;;;;11.51;41.70;98929.22;4515950;31;35074;-92
2022/12/08 07:32:22;;;;;;;;;;;;;;;11.69;41.50;98924.13;4515642;31;35050;-91
2022/12/08 07:34:50;;;;;;;;;;;;;;;11.84;41.31;98927.69;4515822;31;34378;-92
2022/12/08 07:37:17;;;;;;;;;;;;;;;11.88;41.25;98929.44;4515947;31;34147;-91
2022/12/08 07:39:45;;;;;;;;;;;;;;;11.72;41.56;98930.22;4515619;31;34094;-86
2022/12/08 07:42:12;;;;;;;;;;;;;;;11.93;41.35;98922.50;4515555;31;34985;-91
2022/12/08 07:44:39;;;;;;;;;;;;;;;11.73;41.94;98919.81;4515784;31;33368;-89
2022/12/08 07:47:06;;;;;;;;;;;;;;;11.39;42.46;98913.59;4515147;31;34278;-90
2022/12/08 07:49:34;;;;;;;;;;;;;;;11.76;41.87;98916.38;4515456;31;35385;-91
2022/12/08 07:52:01;;;;;;;;;;;;;;;11.69;42.10;98918.94;4515220;31;34166;-92
2022/12/08 07:54:28;;;;;;;;;;;;;;;11.74;42.22;98920.69;4515212;31;33405;-91
2022/12/08 07:56:56;;;;;;;;;;;;;;;11.67;42.44;98928.47;4515456;31;34031;-92
2022/12/08 07:59:23;;;;;;;;;;;;;;;11.95;42.05;98928.59;4514119;31;34378;-93
2022/12/08 08:01:50;;;;;;;;;;;;;;;10.33;45.12;98932.66;4515414;31;34852;-91
2022/12/08 08:04:38;;;;;;;;;;;;;;;10.27;45.37;98924.84;4515402;31;33403;-91
2022/12/08 08:07:05;;;;;;;;;;;;;;;9.25;47.93;98928.75;4515488;31;34335;-89
2022/12/08 08:09:34;;;;;;;;;;;;;;;10.10;46.02;98935.84;4516425;31;34171;-92
2022/12/08 08:12:02;;;;;;;;;;;;;;;10.76;44.70;98928.75;4515532;31;33681;-91
2022/12/08 08:14:49;;;;;;;;;;;;;;;10.78;44.57;98933.94;4516020;31;34177;-85
2022/12/08 08:17:16;;;;;;;;;;;;;;;11.43;43.25;98911.00;4515519;31;33971;-89
2022/12/08 08:19:44;;;;;;;;;;;;;;;10.08;45.65;98911.66;4514934;31;34497;-91
2022/12/08 08:22:12;;;;;;;;;;;;;;;10.56;44.61;98907.81;4515335;31;34310;-92
2022/12/08 08:24:39;;;;;;;;;;;;;;;9.86;45.98;98922.62;4515415;31;34166;-91
2022/12/08 08:27:11;;;;;;;;;;;;;;;10.10;46.14;98920.31;4514405;31;34954;-86
2022/12/08 08:29:38;;;;;;;;;;;;;;;10.74;44.93;98919.22;4515488;31;35220;-84
2022/12/08 08:32:05;;;;;;;;;;;;;;;10.41;45.91;98916.31;4515402;31;34121;-91
2022/12/08 08:34:33;;;;;;;;;;;;;;;10.68;45.52;98915.72;4515125;31;34001;-91
2022/12/08 08:37:00;;;;;;;;;;;;;;;10.69;45.51;98920.03;4516333;31;34593;-93
2022/12/08 08:39:29;;;;;;;;;;;;;;;9.19;48.85;98914.88;4515524;31;34064;-93
2022/12/08 08:41:56;;;;;;;;;;;;;;;10.29;46.44;98917.94;4514992;31;33774;-92
2022/12/08 08:44:23;;;;;;;;;;;;;;;10.69;45.70;98922.62;4486571;31;896878;-93
2022/12/08 08:46:50;;;;;;;;;;;;;;;10.85;45.44;98921.03;4515153;31;34814;-94
2022/12/08 08:49:18;;;;;;;;;;;;;;;8.68;49.44;98914.09;4515106;31;34092;-92
2022/12/08 08:51:46;;;;;;;;;;;;;;;9.93;47.60;98912.38;4515060;31;34201;-93
2022/12/08 08:54:14;;;;;;;;;;;;;;;10.28;46.95;98908.44;4513718;31;34193;-86
2022/12/08 08:56:41;;;;;;;;;;;;;;;10.81;46.21;98913.22;4514869;31;34064;-92
2022/12/08 08:59:08;;;;;;;;;;;;;;;10.46;46.54;98911.22;4514984;31;34249;-89
2022/12/08 09:01:35;;;;;;;;;;;;;;;11.03;45.16;98916.84;4514741;31;34936;-92
2022/12/08 09:04:03;;;;;;;;;;;;;;;11.01;45.34;98918.53;4514628;31;33260;-89
2022/12/08 09:06:30;;;;;;;;;;;;;;;11.18;45.34;98920.41;4514863;31;34315;-93
2022/12/08 09:08:57;;;;;;;;;;;;;;;11.41;44.71;98906.69;4514946;31;34321;-93
2022/12/08 09:11:24;;;;;;;;;;;;;;;9.84;48.11;98909.66;4513500;31;33997;-93
2022/12/08 09:13:52;;;;;;;;;;;;;;;10.44;46.83;98912.91;4514718;31;33353;-94
2022/12/08 09:16:19;;;;;;;;;;;;;;;11.01;45.24;98906.44;4514620;31;34101;-89
2022/12/08 09:18:48;;;;;;;;;;;;;;;10.69;44.21;98903.63;4513249;31;34030;-93
2022/12/08 09:21:19;;;;;;;;;;;;;;;11.02;42.84;98913.34;4514737;31;34408;-93
2022/12/08 09:23:46;;;;;;;;;;;;;;;11.03;42.66;98922.03;4514546;31;33624;-93
2022/12/08 09:26:14;;;;;;;;;;;;;;;11.03;41.57;98912.53;4514387;31;35186;-90
2022/12/08 09:28:45;;;;;;;;;;;;;;;11.59;40.93;98906.78;4514558;31;34131;-93
2022/12/08 09:31:13;;;;;;;;;;;;;;;11.54;41.48;98905.00;4514422;31;34115;-85
2022/12/08 09:33:40;;;;;;;;;;;;;;;10.88;41.38;98902.03;4514359;31;32746;-93
2022/12/08 09:36:08;;;;;;;;;;;;;;;10.06;43.44;98890.03;4514591;31;33980;-93
2022/12/08 09:38:36;;;;;;;;;;;;;;;8.72;45.94;98884.88;4516042;31;34144;-93
2022/12/08 09:41:03;;;;;;;;;;;;;;;8.26;47.01;98878.94;4515341;31;33810;-94
2022/12/08 09:43:50;;;;;;;;;;;;;;;8.42;47.15;98867.16;4516734;31;33432;-89
2022/12/08 09:46:18;;;;;;;;;;;;;;;9.37;45.04;98881.50;4517207;31;33376;-94
2022/12/08 09:49:03;;;;;;;;;;;;;;;9.15;45.04;98888.09;4515987;31;34441;-93
2022/12/08 09:51:33;;;;;;;;;;;;;;;8.55;46.82;98873.41;4515480;31;34337;-90
2022/12/08 09:54:03;;;;;;;;;;;;;;;8.29;47.75;98886.69;4516148;31;33954;-92
2022/12/08 09:56:31;;;;;;;;;;;;;;;7.97;48.10;98870.66;4517084;31;33840;-92
2022/12/08 09:58:59;;;;;;;;;;;;;;;8.61;45.68;98865.75;4517190;31;34986;-93
2022/12/08 10:01:28;;;;;;;;;;;;;;;8.15;47.53;98874.44;4516558;31;34227;-91
2022/12/08 10:03:55;;;;;;;;;;;;;;;8.38;47.52;98880.00;4516465;31;33430;-94
2022/12/08 10:06:23;;;;;;;;;;;;;;;7.53;48.22;98875.81;4517228;31;35066;-94
2022/12/08 10:08:58;;;;;;;;;;;;;;;8.40;47.30;98875.72;4517303;31;34537;-93
2022/12/08 10:11:28;;;;;;;;;;;;;;;8.91;46.18;98877.41;4515739;31;35033;-94
2022/12/08 10:14:13;;;;;;;;;;;;;;;7.82;48.62;98879.84;4517292;31;33532;-94
2022/12/08 10:16:41;;;;;;;;;;;;;;;8.14;47.53;98873.53;4516889;31;33825;-94
2022/12/08 10:19:17;;;;;;;;;;;;;;;8.48;46.91;98872.41;4515542;31;34097;-93
2022/12/08 10:21:44;;;;;;;;;;;;;;;8.46;47.59;98861.22;4515035;31;34897;-93
2022/12/08 10:24:17;;;;;;;;;;;;;;;8.48;47.31;98861.22;4516567;31;34114;-88
2022/12/08 10:26:44;;;;;;;;;;;;;;;7.56;49.15;98856.97;4516292;31;34857;-94
2022/12/08 10:29:12;;;;;;;;;;;;;;;9.07;46.56;98856.09;4515247;31;34065;-85
2022/12/08 10:31:39;;;;;;;;;;;;;;;7.46;49.66;98862.78;4514582;31;34040;-91
2022/12/08 10:34:17;;;;;;;;;;;;;;;7.58;49.79;98847.56;4515177;31;34129;-87
2022/12/08 10:36:47;;;;;;;;;;;;;;;7.76;48.59;98832.41;4516196;31;33283;-93
2022/12/08 10:39:35;;;;;;;;;;;;;;;7.42;48.81;98833.47;4516091;31;34224;-85
2022/12/08 10:42:07;;;;;;;;;;;;;;;7.91;48.53;98833.53;4516567;31;32487;-90
2022/12/08 10:44:52;;;;;;;;;;;;;;;7.66;49.55;98819.31;4515438;31;32759;-93
2022/12/08 10:47:20;;;;;;;;;;;;;;;8.55;47.91;98819.13;4514555;31;34089;-91
2022/12/08 10:49:47;;;;;;;;;;;;;;;7.58;49.47;98819.19;4514155;31;33960;-93
2022/12/08 10:52:21;;;;;;;;;;;;;;;8.69;47.00;98812.47;4514745;31;34701;-92
2022/12/08 10:54:53;;;;;;;;;;;;;;;7.35;50.15;98817.84;4514695;31;34170;-92
2022/12/08 10:57:21;;;;;;;;;;;;;;;8.25;47.83;98806.56;4516039;31;34951;-86
2022/12/08 10:59:48;;;;;;;;;;;;;;;8.49;47.21;98804.44;4515787;31;35128;-94
2022/12/08 11:02:18;;;;;;;;;;;;;;;7.65;49.15;98794.34;4515880;31;34260;-93
2022/12/08 11:04:46;;;;;;;;;;;;;;;7.81;49.07;98788.63;4514918;31;34418;-90
2022/12/08 11:07:19;;;;;;;;;;;;;;;7.36;50.28;98783.50;4516001;31;33988;-87
2022/12/08 11:09:47;;;;;;;;;;;;;;;8.38;47.80;98779.28;4515071;31;33848;-94
2022/12/08 11:12:15;;;;;;;;;;;;;;;7.53;48.76;98774.34;4514542;31;34311;-90
2022/12/08 11:14:42;;;;;;;;;;;;;;;7.54;49.40;98765.78;4514173;31;32748;-92
2022/12/08 11:17:23;;;;;;;;;;;;;;;7.80;48.85;98753.34;4515637;31;34240;-85
2022/12/08 11:20:16;;;;;;;;;;;;;;;7.68;48.74;98751.41;4515571;31;34483;-86
2022/12/08 11:22:46;;;;;;;;;;;;;;;7.05;50.78;98745.09;4514068;31;35065;-84
2022/12/08 11:25:23;;;;;;;;;;;;;;;6.92;51.47;98740.53;4514204;31;33986;-84
2022/12/08 11:27:57;;;;;;;;;;;;;;;7.64;49.50;98730.69;4514575;31;35066;-85
2022/12/08 11:30:27;;;;;;;;;;;;;;;7.37;50.28;98733.66;4514057;31;34244;-93
2022/12/08 11:32:55;;;;;;;;;;;;;;;8.05;48.59;98731.38;4514492;31;34851;-93
2022/12/08 11:35:26;;;;;;;;;;;;;;;7.66;49.07;98724.72;4514715;31;33425;-87
2022/12/08 11:37:57;;;;;;;;;;;;;;;7.43;49.89;98724.31;4514676;31;33694;-85
2022/12/08 11:40:44;;;;;;;;;;;;;;;7.39;49.89;98714.81;4514540;31;35169;-86
2022/12/08 11:43:18;;;;;;;;;;;;;;;6.89;50.38;98716.41;4514053;31;34207;-84
2022/12/08 11:45:46;;;;;;;;;;;;;;;7.02;50.36;98713.25;4515633;31;33255;-86
2022/12/08 11:48:13;;;;;;;;;;;;;;;7.41;49.49;98701.91;4514022;31;35046;-91
2022/12/08 11:50:42;;;;;;;;;;;;;;;7.58;48.99;98710.84;4515846;31;34233;-93
2022/12/08 11:53:29;;;;;;;;;;;;;;;7.35;49.45;98706.97;4514239;31;34020;-85
2022/12/08 11:55:59;;;;;;;;;;;;;;;7.42;48.44;98701.94;4505188;31;33609;-93
2022/12/08 11:58:30;;;;;;;;;;;;;;;7.22;49.61;98711.91;4515197;31;35077;-92
2022/12/08 12:00:57;;;;;;;;;;;;;;;7.06;49.83;98704.72;4513220;31;33965;-94
2022/12/08 12:03:37;;;;;;;;;;;;;;;7.44;49.10;98699.41;4515784;31;33911;-92
2022/12/08 12:06:14;;;;;;;;;;;;;;;7.75;48.52;98699.06;4514064;31;33356;-94
2022/12/08 12:09:08;;;;;;;;;;;;;;;7.14;49.87;98695.41;4514483;31;34562;-91
2022/12/08 12:14:30;;;;;;;;;;;;;;;6.96;50.17;98702.78;4515515;31;34029;-85
2022/12/08 12:17:00;;;;;;;;;;;;;;;7.77;48.23;98696.53;4514624;31;33543;-85
2022/12/08 12:19:29;;;;;;;;;;;;;;;7.82;47.92;98704.34;4515663;31;34377;-92
2022/12/08 12:21:56;;;;;;;;;;;;;;;7.38;48.30;98707.00;4514342;31;35100;-93
2022/12/08 12:24:24;;;;;;;;;;;;;;;8.25;47.04;98703.28;4515521;31;34223;-93
2022/12/08 12:27:01;;;;;;;;;;;;;;;8.14;47.34;98710.00;4515276;31;33389;-94
2022/12/08 12:29:29;;;;;;;;;;;;;;;8.89;45.32;98698.13;4514310;31;34787;-89
2022/12/08 12:32:14;;;;;;;;;;;;;;;8.53;45.65;98700.28;4514157;31;34441;-90
2022/12/08 12:34:55;;;;;;;;;;;;;;;8.43;46.80;98695.81;4514434;31;34912;-85
2022/12/08 12:37:23;;;;;;;;;;;;;;;9.30;44.63;98690.81;4514644;31;33199;-85
2022/12/08 12:39:51;;;;;;;;;;;;;;;9.30;44.08;98684.78;4515046;31;34674;-93
2022/12/08 12:42:37;;;;;;;;;;;;;;;8.31;46.53;98687.00;4514820;31;34475;-93
2022/12/08 12:45:16;;;;;;;;;;;;;;;7.82;47.67;98681.13;4515119;31;34598;-93
2022/12/08 12:47:49;;;;;;;;;;;;;;;8.25;46.80;98688.66;4515406;31;34389;-92
2022/12/08 12:50:31;;;;;;;;;;;;;;;7.68;48.28;98675.72;4515345;31;34005;-93
2022/12/08 12:53:02;;;;;;;;;;;;;;;8.44;46.38;98678.59;4515468;31;34300;-93
2022/12/08 12:55:44;;;;;;;;;;;;;;;8.40;46.57;98677.69;4513833;31;34351;-93
2022/12/08 12:58:19;;;;;;;;;;;;;;;8.34;46.62;98676.72;4514990;31;33748;-85
2022/12/08 13:00:46;;;;;;;;;;;;;;;7.75;48.82;98680.16;4514817;31;35081;-87
2022/12/08 13:03:14;;;;;;;;;;;;;;;7.75;48.59;98672.41;4514958;31;34179;-91
2022/12/08 13:05:50;;;;;;;;;;;;;;;8.75;46.47;98667.84;4514074;31;34565;-95
2022/12/08 13:08:19;;;;;;;;;;;;;;;8.51;46.69;98658.03;4513779;31;33988;-93
2022/12/08 13:10:48;;;;;;;;;;;;;;;8.45;46.39;98660.56;4513790;31;34270;-90
2022/12/08 13:13:17;;;;;;;;;;;;;;;7.79;48.33;98664.72;4516132;31;34380;-91